Time;durP1;ratioP1;P1;durP2;ratioP2;P2;SDS_P1;SDS_P2;PMS_P1;PMS_P2;Temp;Humidity;BMP_temperature;BMP_pressure;BME280_temperature;BME280_humidity;BME280_pressure;Samples;Min_cycle;Max_cycle;Signal;HPM_P1;HPM_P2
2021/01/07 00:00:09;;;;;;;14.30;13.10;;;;;;;;;;5020389;28;20638;-87
2021/01/07 00:02:35;;;;;;;14.63;13.47;;;;;;;;;;5020619;28;20252;-87
2021/01/07 00:05:02;;;;;;;15.73;14.40;;;;;;;;;;5018878;28;20209;-87
2021/01/07 00:07:28;;;;;;;15.03;13.73;;;;;;;;;;5018821;28;20183;-87
2021/01/07 00:09:55;;;;;;;15.47;14.07;;;;;;;;;;5018507;28;20177;-87
2021/01/07 00:12:28;;;;;;;15.60;14.23;;;;;;;;;;5018030;28;20292;-87
2021/01/07 00:15:01;;;;;;;14.70;13.50;;;;;;;;;;5018304;28;20181;-87
2021/01/07 00:17:35;;;;;;;14.83;13.53;;;;;;;;;;5018635;28;20226;-87
2021/01/07 00:20:07;;;;;;;15.23;13.73;;;;;;;;;;5036092;28;20174;-87
2021/01/07 00:22:34;;;;;;;14.53;13.33;;;;;;;;;;5038553;28;20240;-87
2021/01/07 00:25:00;;;;;;;14.63;13.33;;;;;;;;;;5019322;28;20264;-87
2021/01/07 00:27:27;;;;;;;14.90;13.50;;;;;;;;;;5036981;28;20183;-88
2021/01/07 00:29:55;;;;;;;14.73;13.43;;;;;;;;;;5019689;28;20187;-88
2021/01/07 00:32:25;;;;;;;14.30;12.97;;;;;;;;;;5036310;28;20212;-87
2021/01/07 00:34:52;;;;;;;14.50;13.20;;;;;;;;;;5018306;28;20173;-87
2021/01/07 00:37:19;;;;;;;14.30;13.10;;;;;;;;;;5018836;28;20189;-88
2021/01/07 00:39:49;;;;;;;15.57;14.17;;;;;;;;;;5018964;28;20664;-87
2021/01/07 00:42:17;;;;;;;13.63;12.43;;;;;;;;;;5018654;28;20220;-87
2021/01/07 00:44:44;;;;;;;14.80;13.30;;;;;;;;;;5036322;28;20311;-87
2021/01/07 00:47:12;;;;;;;13.93;12.63;;;;;;;;;;5018553;28;20191;-87
2021/01/07 00:49:47;;;;;;;14.30;13.07;;;;;;;;;;5017818;28;20181;-87
2021/01/07 00:52:18;;;;;;;14.07;12.83;;;;;;;;;;5035484;28;20549;-87
2021/01/07 00:54:48;;;;;;;15.40;13.93;;;;;;;;;;5017322;28;20179;-87
2021/01/07 00:57:18;;;;;;;15.43;13.83;;;;;;;;;;5017778;28;20180;-87
2021/01/07 00:59:46;;;;;;;14.03;12.80;;;;;;;;;;5017198;28;20177;-86
2021/01/07 01:02:18;;;;;;;14.30;13.10;;;;;;;;;;5017242;28;20193;-86
2021/01/07 01:04:49;;;;;;;13.83;12.73;;;;;;;;;;4911190;28;3555267;-86
2021/01/07 01:07:17;;;;;;;14.83;13.43;;;;;;;;;;5035879;28;20179;-86
2021/01/07 01:09:46;;;;;;;13.83;12.63;;;;;;;;;;5035870;28;20183;-86
2021/01/07 01:12:16;;;;;;;14.43;13.23;;;;;;;;;;5018060;28;20285;-86
2021/01/07 01:14:49;;;;;;;15.23;13.77;;;;;;;;;;5035798;28;20246;-86
2021/01/07 01:17:21;;;;;;;16.10;14.67;;;;;;;;;;5035898;28;20191;-86
2021/01/07 01:19:55;;;;;;;18.50;16.53;;;;;;;;;;5017947;28;20272;-86
2021/01/07 01:22:21;;;;;;;17.43;15.80;;;;;;;;;;5035681;28;20177;-86
2021/01/07 01:24:55;;;;;;;19.53;17.67;;;;;;;;;;5035645;28;20184;-86
2021/01/07 01:27:21;;;;;;;19.00;17.10;;;;;;;;;;5018630;28;20181;-86
2021/01/07 01:29:47;;;;;;;19.83;17.73;;;;;;;;;;5017989;28;20208;-84
2021/01/07 01:32:18;;;;;;;21.57;18.77;;;;;;;;;;5017585;28;20615;-84
2021/01/07 01:34:49;;;;;;;19.70;17.60;;;;;;;;;;5035380;28;20178;-84
2021/01/07 01:37:16;;;;;;;21.70;19.00;;;;;;;;;;5017597;28;20195;-85
2021/01/07 01:39:45;;;;;;;23.40;20.30;;;;;;;;;;5035376;28;20234;-86
2021/01/07 01:42:15;;;;;;;22.47;20.07;;;;;;;;;;5035626;28;20184;-86
2021/01/07 01:44:45;;;;;;;23.73;20.57;;;;;;;;;;5017497;28;20677;-86
2021/01/07 01:47:18;;;;;;;22.57;19.23;;;;;;;;;;5017786;28;20180;-86
2021/01/07 01:49:51;;;;;;;24.53;19.33;;;;;;;;;;5017510;28;20181;-86
2021/01/07 01:52:21;;;;;;;25.73;20.13;;;;;;;;;;5017332;28;20200;-86
2021/01/07 01:54:54;;;;;;;22.87;19.40;;;;;;;;;;5018511;28;20195;-86
2021/01/07 01:57:29;;;;;;;20.90;18.53;;;;;;;;;;5017721;28;20533;-87
2021/01/07 01:59:59;;;;;;;25.67;20.87;;;;;;;;;;5017649;28;20226;-87
2021/01/07 02:02:31;;;;;;;23.70;19.33;;;;;;;;;;5017608;28;20609;-86
2021/01/07 02:05:02;;;;;;;25.43;19.60;;;;;;;;;;5017339;28;20198;-87
2021/01/07 02:07:39;;;;;;;21.37;18.50;;;;;;;;;;5017476;28;20184;-87
2021/01/07 02:10:16;;;;;;;23.17;19.03;;;;;;;;;;5017265;28;20641;-87
2021/01/07 02:12:50;;;;;;;24.10;19.77;;;;;;;;;;5017213;28;20213;-87
2021/01/07 02:15:21;;;;;;;23.80;19.80;;;;;;;;;;5017579;28;20538;-87
2021/01/07 02:17:54;;;;;;;22.80;18.77;;;;;;;;;;5016519;28;20181;-87
2021/01/07 02:20:29;;;;;;;21.13;18.57;;;;;;;;;;5017781;28;20173;-87
2021/01/07 02:23:01;;;;;;;22.73;18.97;;;;;;;;;;5016954;28;20196;-87
2021/01/07 02:25:31;;;;;;;20.60;18.17;;;;;;;;;;5016906;28;20192;-87
2021/01/07 02:28:05;;;;;;;22.93;19.27;;;;;;;;;;5016968;28;20185;-87
2021/01/07 02:30:31;;;;;;;22.17;18.00;;;;;;;;;;5017414;28;20212;-87
2021/01/07 02:33:05;;;;;;;19.83;17.67;;;;;;;;;;5034453;28;20213;-87
2021/01/07 02:35:38;;;;;;;20.90;18.20;;;;;;;;;;5017279;28;20175;-86
2021/01/07 02:38:10;;;;;;;20.80;18.60;;;;;;;;;;5017009;28;20180;-87
2021/01/07 02:40:46;;;;;;;21.17;18.93;;;;;;;;;;5034337;28;20180;-86
2021/01/07 02:43:17;;;;;;;20.13;17.07;;;;;;;;;;5016827;28;20198;-87
2021/01/07 02:45:51;;;;;;;20.83;17.77;;;;;;;;;;5034141;28;20186;-87
2021/01/07 02:48:24;;;;;;;22.90;18.53;;;;;;;;;;5016472;28;20178;-86
2021/01/07 02:50:55;;;;;;;22.80;19.13;;;;;;;;;;5034207;28;20190;-86
2021/01/07 02:53:27;;;;;;;22.00;18.23;;;;;;;;;;5016534;28;20599;-86
2021/01/07 02:55:56;;;;;;;26.37;18.93;;;;;;;;;;5016236;28;20249;-86
2021/01/07 02:58:22;;;;;;;19.37;17.37;;;;;;;;;;5016395;28;20537;-86
2021/01/07 03:00:52;;;;;;;19.17;17.07;;;;;;;;;;5033961;28;20661;-86
2021/01/07 03:03:25;;;;;;;18.77;16.83;;;;;;;;;;5015990;28;20239;-86
2021/01/07 03:05:51;;;;;;;18.17;16.23;;;;;;;;;;5034120;28;20195;-87
2021/01/07 03:08:24;;;;;;;21.77;17.10;;;;;;;;;;5033755;28;20234;-87
2021/01/07 03:10:55;;;;;;;17.43;15.53;;;;;;;;;;5034269;28;20579;-86
2021/01/07 03:13:27;;;;;;;20.40;16.90;;;;;;;;;;5016064;28;20214;-86
2021/01/07 03:16:01;;;;;;;19.53;16.67;;;;;;;;;;5016017;28;20180;-86
2021/01/07 03:18:34;;;;;;;20.83;16.90;;;;;;;;;;5034106;28;20536;-86
2021/01/07 03:21:09;;;;;;;18.53;16.17;;;;;;;;;;5017124;28;20170;-87
2021/01/07 03:23:41;;;;;;;20.63;17.07;;;;;;;;;;5015867;28;20199;-87
2021/01/07 03:26:15;;;;;;;20.83;16.23;;;;;;;;;;5033498;28;20182;-87
2021/01/07 03:28:46;;;;;;;20.90;17.13;;;;;;;;;;5033747;28;20263;-86
2021/01/07 03:31:18;;;;;;;19.60;16.70;;;;;;;;;;5033587;28;20178;-87
2021/01/07 03:33:47;;;;;;;20.33;17.23;;;;;;;;;;5033307;28;20692;-86
2021/01/07 03:36:19;;;;;;;20.13;15.73;;;;;;;;;;5015674;28;20259;-86
2021/01/07 03:38:51;;;;;;;21.60;17.50;;;;;;;;;;5015759;28;20618;-87
2021/01/07 03:41:19;;;;;;;19.83;16.57;;;;;;;;;;5033417;28;20185;-86
2021/01/07 03:43:51;;;;;;;20.63;17.33;;;;;;;;;;5015607;28;20192;-86
2021/01/07 03:46:21;;;;;;;19.73;17.43;;;;;;;;;;5015668;28;20180;-87
2021/01/07 03:48:54;;;;;;;18.93;16.83;;;;;;;;;;5033664;28;20177;-87
2021/01/07 03:51:25;;;;;;;18.37;16.27;;;;;;;;;;5016233;28;20182;-87
2021/01/07 03:53:57;;;;;;;20.57;17.10;;;;;;;;;;5033461;28;20209;-87
2021/01/07 03:56:23;;;;;;;21.23;17.27;;;;;;;;;;5016045;28;20174;-87
2021/01/07 03:58:53;;;;;;;23.93;17.10;;;;;;;;;;5016105;28;20605;-87
2021/01/07 04:01:25;;;;;;;21.40;17.47;;;;;;;;;;5016650;28;20232;-87
2021/01/07 04:03:51;;;;;;;20.30;17.53;;;;;;;;;;5016612;28;20312;-87
2021/01/07 04:06:23;;;;;;;22.00;17.87;;;;;;;;;;5016724;28;20663;-87
2021/01/07 04:08:54;;;;;;;19.27;16.83;;;;;;;;;;5016982;28;20363;-87
2021/01/07 04:11:22;;;;;;;19.20;17.20;;;;;;;;;;5017136;28;20655;-87
2021/01/07 04:13:55;;;;;;;19.03;16.60;;;;;;;;;;5017074;28;20216;-87
2021/01/07 04:16:27;;;;;;;18.83;16.53;;;;;;;;;;5035616;28;20173;-87
2021/01/07 04:18:59;;;;;;;18.77;16.60;;;;;;;;;;5017748;28;20179;-87
2021/01/07 04:21:31;;;;;;;18.87;16.40;;;;;;;;;;5017278;28;20181;-87
2021/01/07 04:24:05;;;;;;;20.43;16.57;;;;;;;;;;5017734;28;20234;-87
2021/01/07 04:26:41;;;;;;;19.37;16.47;;;;;;;;;;5035158;28;20260;-87
2021/01/07 04:29:14;;;;;;;17.83;16.03;;;;;;;;;;5034828;28;20640;-87
2021/01/07 04:31:48;;;;;;;17.07;15.27;;;;;;;;;;5016938;28;20182;-87
2021/01/07 04:34:25;;;;;;;17.67;15.77;;;;;;;;;;5017621;28;20268;-87
2021/01/07 04:36:52;;;;;;;19.20;15.23;;;;;;;;;;5018181;28;20172;-88
2021/01/07 04:39:28;;;;;;;15.43;13.77;;;;;;;;;;5035020;28;20192;-87
2021/01/07 04:42:01;;;;;;;15.70;14.00;;;;;;;;;;5020904;28;20255;-87
2021/01/07 04:44:29;;;;;;;15.57;13.97;;;;;;;;;;5020639;28;20287;-87
2021/01/07 04:47:05;;;;;;;17.17;14.20;;;;;;;;;;5020442;28;20616;-87
2021/01/07 04:49:35;;;;;;;16.17;14.57;;;;;;;;;;5020939;28;20207;-87
2021/01/07 04:52:08;;;;;;;15.10;13.60;;;;;;;;;;5020970;28;22136;-87
2021/01/07 04:54:39;;;;;;;15.63;14.07;;;;;;;;;;5038296;28;20197;-87
2021/01/07 04:57:10;;;;;;;14.03;12.57;;;;;;;;;;5023192;28;20177;-90
2021/01/07 04:59:44;;;;;;;15.13;13.53;;;;;;;;;;5022589;28;20549;-87
2021/01/07 05:02:14;;;;;;;15.77;14.07;;;;;;;;;;5021134;28;20702;-88
2021/01/07 05:04:58;;;;;;;14.13;12.63;;;;;;;;;;5076890;22;20224;-84
2021/01/07 05:07:24;;;;;;;15.27;13.60;;;;;;;;;;5076197;28;20161;-84
2021/01/07 05:10:11;;;;;;;16.03;14.37;;;;;;;;;;5076023;28;20182;-84
2021/01/07 05:12:44;;;;;;;14.80;13.30;;;;;;;;;;5075271;28;20208;-85
2021/01/07 05:15:14;;;;;;;15.10;13.57;;;;;;;;;;5075887;28;20172;-84
2021/01/07 05:17:49;;;;;;;15.87;13.57;;;;;;;;;;5075131;28;20172;-84
2021/01/07 05:20:21;;;;;;;14.77;13.27;;;;;;;;;;5074675;28;20260;-85
2021/01/07 05:22:55;;;;;;;18.07;15.80;;;;;;;;;;5075002;28;20194;-84
2021/01/07 05:25:36;;;;;;;16.70;14.07;;;;;;;;;;5075580;28;20165;-85
2021/01/07 05:28:09;;;;;;;14.97;13.53;;;;;;;;;;5074752;28;20226;-85
2021/01/07 05:30:40;;;;;;;15.33;13.73;;;;;;;;;;5076107;28;20192;-85
2021/01/07 05:33:11;;;;;;;13.97;12.47;;;;;;;;;;5076231;28;20215;-85
2021/01/07 05:35:44;;;;;;;15.23;13.33;;;;;;;;;;5076251;28;20156;-84
2021/01/07 05:38:19;;;;;;;16.53;13.33;;;;;;;;;;5076827;28;20165;-84
2021/01/07 05:40:55;;;;;;;15.37;13.43;;;;;;;;;;5076232;28;20187;-85
2021/01/07 05:43:29;;;;;;;14.63;12.87;;;;;;;;;;5076036;28;20219;-85
2021/01/07 05:46:01;;;;;;;14.90;13.47;;;;;;;;;;5076713;28;20192;-84
2021/01/07 05:48:33;;;;;;;14.27;12.77;;;;;;;;;;5075949;28;20228;-85
2021/01/07 05:51:06;;;;;;;13.97;12.47;;;;;;;;;;5075333;28;20169;-85
2021/01/07 05:53:38;;;;;;;13.43;12.07;;;;;;;;;;5075067;28;20703;-85
2021/01/07 05:56:10;;;;;;;14.83;12.57;;;;;;;;;;5076002;28;20174;-85
2021/01/07 05:58:43;;;;;;;16.13;14.43;;;;;;;;;;5075844;28;20173;-85
2021/01/07 06:01:15;;;;;;;17.20;15.47;;;;;;;;;;5076208;28;20156;-85
2021/01/07 06:03:47;;;;;;;17.80;16.13;;;;;;;;;;5076443;28;20233;-85
2021/01/07 06:06:19;;;;;;;15.77;14.20;;;;;;;;;;5076018;28;20184;-84
2021/01/07 06:08:51;;;;;;;15.67;14.00;;;;;;;;;;5076194;28;20190;-85
2021/01/07 06:11:22;;;;;;;15.17;13.53;;;;;;;;;;5075499;28;20198;-85
2021/01/07 06:13:55;;;;;;;14.87;13.30;;;;;;;;;;5075185;28;20207;-85
2021/01/07 06:16:27;;;;;;;14.80;13.30;;;;;;;;;;5075521;28;20156;-85
2021/01/07 06:19:14;;;;;;;14.43;12.93;;;;;;;;;;5057678;28;20192;-85
2021/01/07 06:21:51;;;;;;;14.00;12.57;;;;;;;;;;5075172;28;20165;-85
2021/01/07 06:24:21;;;;;;;14.37;12.87;;;;;;;;;;5074733;28;20176;-84
2021/01/07 06:26:54;;;;;;;15.43;13.87;;;;;;;;;;5057354;28;20176;-85
2021/01/07 06:29:20;;;;;;;14.67;13.10;;;;;;;;;;5074755;28;20167;-85
2021/01/07 06:31:59;;;;;;;13.90;12.47;;;;;;;;;;5074704;28;20183;-85
2021/01/07 06:34:41;;;;;;;15.03;13.43;;;;;;;;;;5074280;28;20610;-85
2021/01/07 06:37:12;;;;;;;14.93;13.40;;;;;;;;;;5074620;28;20605;-85
2021/01/07 06:39:45;;;;;;;16.47;14.70;;;;;;;;;;5074545;28;20168;-85
2021/01/07 06:42:21;;;;;;;15.13;13.40;;;;;;;;;;5075000;28;20275;-85
2021/01/07 06:44:55;;;;;;;15.90;13.63;;;;;;;;;;5073804;28;20193;-85
2021/01/07 06:47:26;;;;;;;17.37;14.23;;;;;;;;;;5056347;28;20183;-85
2021/01/07 06:49:56;;;;;;;18.90;15.07;;;;;;;;;;5073612;28;20164;-85
2021/01/07 06:52:25;;;;;;;20.37;15.23;;;;;;;;;;5073604;28;20200;-85
2021/01/07 06:54:56;;;;;;;18.87;14.53;;;;;;;;;;5073516;28;20192;-85
2021/01/07 06:57:24;;;;;;;19.73;15.53;;;;;;;;;;5072675;28;20240;-85
2021/01/07 07:00:01;;;;;;;24.20;15.97;;;;;;;;;;5073364;28;20197;-84
2021/01/07 07:02:31;;;;;;;17.00;14.87;;;;;;;;;;5072796;28;20195;-85
2021/01/07 07:05:09;;;;;;;18.13;15.33;;;;;;;;;;5056164;28;20250;-85
2021/01/07 07:07:41;;;;;;;19.80;15.40;;;;;;;;;;5073172;28;20172;-85
2021/01/07 07:10:21;;;;;;;16.60;14.33;;;;;;;;;;5072502;28;20653;-85
2021/01/07 07:12:51;;;;;;;19.10;15.10;;;;;;;;;;5071387;28;20220;-84
2021/01/07 07:15:24;;;;;;;17.23;15.00;;;;;;;;;;5071959;28;20176;-85
2021/01/07 07:18:00;;;;;;;19.10;15.03;;;;;;;;;;5071942;28;20266;-84
2021/01/07 07:20:34;;;;;;;17.47;14.50;;;;;;;;;;5071213;28;20183;-84
2021/01/07 07:23:15;;;;;;;20.07;15.07;;;;;;;;;;5071331;28;20220;-84
2021/01/07 07:25:51;;;;;;;20.67;15.17;;;;;;;;;;5070812;28;20180;-84
2021/01/07 07:28:26;;;;;;;19.10;16.57;;;;;;;;;;5072290;28;20191;-84
2021/01/07 07:30:57;;;;;;;19.37;15.10;;;;;;;;;;5053916;28;20185;-85
2021/01/07 07:33:35;;;;;;;21.60;16.60;;;;;;;;;;5072557;28;20291;-85
2021/01/07 07:36:08;;;;;;;22.03;16.27;;;;;;;;;;5072593;28;20164;-84
2021/01/07 07:38:43;;;;;;;21.70;17.13;;;;;;;;;;5072356;28;20176;-85
2021/01/07 07:41:11;;;;;;;19.00;15.73;;;;;;;;;;5072207;28;20160;-84
2021/01/07 07:43:45;;;;;;;21.33;16.30;;;;;;;;;;5071780;28;20206;-84
2021/01/07 07:46:18;;;;;;;20.63;15.83;;;;;;;;;;5055269;28;20200;-84
2021/01/07 07:48:46;;;;;;;17.60;15.70;;;;;;;;;;5053639;28;20272;-85
2021/01/07 07:51:19;;;;;;;20.97;15.73;;;;;;;;;;5072638;28;20205;-85
2021/01/07 07:53:49;;;;;;;18.90;15.30;;;;;;;;;;5072354;28;20230;-85
2021/01/07 07:56:25;;;;;;;18.10;15.17;;;;;;;;;;5072155;28;20188;-84
2021/01/07 07:59:04;;;;;;;21.73;15.57;;;;;;;;;;5072067;28;20175;-85
2021/01/07 08:01:38;;;;;;;19.67;15.40;;;;;;;;;;5071587;28;20174;-86
2021/01/07 08:04:19;;;;;;;19.63;16.37;;;;;;;;;;5071986;28;20224;-84
2021/01/07 08:06:50;;;;;;;17.57;15.67;;;;;;;;;;5073163;28;20171;-85
2021/01/07 08:09:24;;;;;;;18.83;16.43;;;;;;;;;;5072521;28;20183;-84
2021/01/07 08:11:56;;;;;;;18.50;15.83;;;;;;;;;;5072792;28;20164;-84
2021/01/07 08:14:30;;;;;;;18.10;15.27;;;;;;;;;;5069862;28;20188;-84
2021/01/07 08:17:02;;;;;;;18.40;15.73;;;;;;;;;;5075691;28;20170;-84
2021/01/07 08:19:37;;;;;;;16.30;14.43;;;;;;;;;;5076448;28;20168;-84
2021/01/07 08:22:04;;;;;;;16.40;14.47;;;;;;;;;;5077122;28;20171;-85
2021/01/07 08:24:35;;;;;;;16.73;15.03;;;;;;;;;;5074530;28;20195;-84
2021/01/07 08:27:16;;;;;;;18.40;15.77;;;;;;;;;;5075535;28;20190;-84
2021/01/07 08:29:54;;;;;;;19.40;16.67;;;;;;;;;;5075998;28;20168;-84
2021/01/07 08:32:25;;;;;;;17.43;15.03;;;;;;;;;;5076993;28;20251;-84
2021/01/07 08:34:54;;;;;;;18.13;16.13;;;;;;;;;;5075923;28;20253;-84
2021/01/07 08:37:33;;;;;;;16.70;15.07;;;;;;;;;;5076168;28;20578;-84
2021/01/07 08:40:07;;;;;;;19.20;16.13;;;;;;;;;;5075877;28;20175;-84
2021/01/07 08:42:40;;;;;;;19.73;16.13;;;;;;;;;;5076277;28;20173;-84
2021/01/07 08:45:08;;;;;;;17.93;15.53;;;;;;;;;;5076230;28;20168;-84
2021/01/07 08:47:38;;;;;;;18.43;15.83;;;;;;;;;;5075920;28;20181;-84
2021/01/07 08:50:11;;;;;;;17.13;15.40;;;;;;;;;;5058787;28;20196;-84
2021/01/07 08:52:50;;;;;;;17.80;15.07;;;;;;;;;;5076622;28;20204;-85
2021/01/07 08:55:19;;;;;;;16.47;14.83;;;;;;;;;;5058154;28;20196;-86
2021/01/07 08:57:50;;;;;;;16.20;14.50;;;;;;;;;;5076034;28;20166;-84
2021/01/07 09:00:19;;;;;;;17.07;15.37;;;;;;;;;;5075944;28;20168;-84
2021/01/07 09:02:49;;;;;;;15.77;13.97;;;;;;;;;;5075197;28;20173;-84
2021/01/07 09:05:21;;;;;;;16.87;14.53;;;;;;;;;;5075659;28;20181;-84
2021/01/07 09:07:48;;;;;;;15.47;13.73;;;;;;;;;;5075404;28;20191;-85
2021/01/07 09:10:25;;;;;;;14.93;13.43;;;;;;;;;;5075879;28;20170;-84
2021/01/07 09:12:55;;;;;;;16.90;15.10;;;;;;;;;;5059364;28;20197;-84
2021/01/07 09:15:29;;;;;;;16.77;14.90;;;;;;;;;;5078977;28;20160;-84
2021/01/07 09:18:08;;;;;;;17.50;15.07;;;;;;;;;;5079518;28;20178;-85
2021/01/07 09:20:40;;;;;;;15.33;13.73;;;;;;;;;;5079241;28;20161;-84
2021/01/07 09:23:16;;;;;;;15.30;13.77;;;;;;;;;;5078862;28;20187;-84
2021/01/07 09:25:47;;;;;;;16.30;14.57;;;;;;;;;;5079069;28;20269;-84
2021/01/07 09:28:19;;;;;;;15.27;13.77;;;;;;;;;;5078636;28;20174;-85
2021/01/07 09:30:51;;;;;;;15.97;13.10;;;;;;;;;;5077752;28;20203;-85
2021/01/07 09:33:24;;;;;;;14.57;13.07;;;;;;;;;;5078206;28;20204;-84
2021/01/07 09:35:58;;;;;;;15.83;14.23;;;;;;;;;;5074986;28;20227;-84
2021/01/07 09:38:30;;;;;;;16.73;14.37;;;;;;;;;;5074934;28;20161;-84
2021/01/07 09:41:05;;;;;;;16.23;14.33;;;;;;;;;;5056729;28;20182;-85
2021/01/07 09:43:40;;;;;;;17.80;14.37;;;;;;;;;;5073887;28;20187;-84
2021/01/07 09:46:12;;;;;;;15.20;13.60;;;;;;;;;;5074127;28;20183;-84
2021/01/07 09:48:44;;;;;;;16.53;14.83;;;;;;;;;;5056582;28;20180;-84
2021/01/07 09:51:16;;;;;;;15.27;13.67;;;;;;;;;;5074138;28;20164;-84
2021/01/07 09:53:48;;;;;;;16.80;15.07;;;;;;;;;;5074014;28;20212;-84
2021/01/07 09:56:21;;;;;;;15.23;13.63;;;;;;;;;;5074370;28;20182;-84
2021/01/07 09:58:52;;;;;;;18.07;14.50;;;;;;;;;;5074703;28;20579;-85
2021/01/07 10:01:21;;;;;;;15.80;14.03;;;;;;;;;;5074963;28;20198;-85
2021/01/07 10:03:49;;;;;;;18.97;15.33;;;;;;;;;;5056771;28;20221;-84
2021/01/07 10:06:17;;;;;;;16.37;14.67;;;;;;;;;;5074292;28;20181;-85
2021/01/07 10:08:49;;;;;;;19.10;15.80;;;;;;;;;;5073176;28;20277;-84
2021/01/07 10:11:18;;;;;;;20.57;16.97;;;;;;;;;;5073834;28;20182;-84
2021/01/07 10:13:51;;;;;;;17.53;15.57;;;;;;;;;;5056143;28;20277;-85
2021/01/07 10:16:18;;;;;;;16.37;14.37;;;;;;;;;;5074114;28;20168;-85
2021/01/07 10:18:50;;;;;;;19.80;15.47;;;;;;;;;;5073568;28;20207;-85
2021/01/07 10:21:22;;;;;;;16.70;15.00;;;;;;;;;;5072884;28;20245;-85
2021/01/07 10:23:56;;;;;;;15.87;14.17;;;;;;;;;;5072578;28;20739;-85
2021/01/07 10:26:27;;;;;;;17.70;15.73;;;;;;;;;;5072920;28;20192;-85
2021/01/07 10:28:53;;;;;;;18.93;16.67;;;;;;;;;;5073853;28;20173;-84
2021/01/07 10:31:25;;;;;;;17.40;15.43;;;;;;;;;;5074183;28;20240;-85
2021/01/07 10:33:55;;;;;;;18.37;16.47;;;;;;;;;;5073617;28;20208;-85
2021/01/07 10:36:28;;;;;;;18.03;15.83;;;;;;;;;;5072909;28;20175;-85
2021/01/07 10:38:59;;;;;;;16.93;12.77;;;;;;;;;;5072754;28;20221;-85
2021/01/07 10:41:34;;;;;;;16.93;14.33;;;;;;;;;;5072657;28;20169;-84
2021/01/07 10:44:08;;;;;;;16.73;15.03;;;;;;;;;;5071806;28;20337;-85
2021/01/07 10:46:40;;;;;;;16.30;14.73;;;;;;;;;;5072146;28;20177;-85
2021/01/07 10:49:15;;;;;;;16.57;14.90;;;;;;;;;;5073814;28;20191;-85
2021/01/07 10:51:59;;;;;;;16.57;14.87;;;;;;;;;;5074947;28;20176;-84
2021/01/07 10:54:35;;;;;;;17.43;15.77;;;;;;;;;;5073882;28;20199;-85
2021/01/07 10:57:24;;;;;;;16.40;14.80;;;;;;;;;;5073933;28;20163;-85
2021/01/07 11:00:16;;;;;;;15.87;14.23;;;;;;;;;;5074540;28;20165;-84
2021/01/07 11:03:05;;;;;;;17.37;15.57;;;;;;;;;;5073893;28;20164;-84
2021/01/07 11:05:40;;;;;;;16.27;14.77;;;;;;;;;;5060565;22;20237;-86
2021/01/07 11:08:19;;;;;;;15.77;14.20;;;;;;;;;;5016191;28;20179;-86
2021/01/07 11:10:50;;;;;;;16.03;14.33;;;;;;;;;;5016424;28;20196;-86
2021/01/07 11:13:19;;;;;;;16.87;15.40;;;;;;;;;;5016026;28;20560;-84
2021/01/07 11:16:01;;;;;;;17.07;15.30;;;;;;;;;;5016208;28;20638;-86
2021/01/07 11:18:36;;;;;;;16.13;14.53;;;;;;;;;;5015972;28;20173;-86
2021/01/07 11:21:07;;;;;;;17.73;16.03;;;;;;;;;;5033704;28;20262;-86
2021/01/07 11:23:38;;;;;;;16.60;14.97;;;;;;;;;;5016024;28;20694;-86
2021/01/07 11:26:05;;;;;;;17.77;16.07;;;;;;;;;;5015924;28;20719;-85
2021/01/07 11:28:31;;;;;;;15.97;14.47;;;;;;;;;;5015841;28;20179;-86
2021/01/07 11:31:01;;;;;;;18.93;16.13;;;;;;;;;;5016772;28;20651;-86
2021/01/07 11:33:38;;;;;;;16.47;14.87;;;;;;;;;;5015657;28;20297;-86
2021/01/07 11:36:15;;;;;;;16.10;14.43;;;;;;;;;;5035348;28;20168;-87
2021/01/07 11:38:49;;;;;;;16.27;14.70;;;;;;;;;;5017490;28;20165;-87
2021/01/07 11:41:40;;;;;;;15.50;14.00;;;;;;;;;;5017024;28;20648;-87
2021/01/07 11:44:23;;;;;;;16.93;15.33;;;;;;;;;;5012392;28;20207;-87
2021/01/07 11:46:50;;;;;;;17.47;15.57;;;;;;;;;;5016600;28;20169;-86
2021/01/07 11:49:20;;;;;;;15.70;14.13;;;;;;;;;;5015873;28;20175;-87
2021/01/07 11:51:51;;;;;;;17.27;15.03;;;;;;;;;;5017198;28;20613;-87
2021/01/07 11:54:18;;;;;;;15.70;14.20;;;;;;;;;;5016402;28;20215;-87
2021/01/07 11:56:55;;;;;;;15.83;14.17;;;;;;;;;;5016974;28;20236;-87
2021/01/07 11:59:27;;;;;;;15.87;14.27;;;;;;;;;;5017964;28;20203;-88
2021/01/07 12:01:53;;;;;;;15.27;13.77;;;;;;;;;;5017594;28;20269;-88
2021/01/07 12:04:25;;;;;;;16.33;14.77;;;;;;;;;;5017743;28;20627;-88
2021/01/07 12:07:06;;;;;;;16.33;14.73;;;;;;;;;;5034638;28;20182;-88
2021/01/07 12:09:41;;;;;;;16.20;14.60;;;;;;;;;;5018413;28;20175;-87
2021/01/07 12:12:17;;;;;;;16.47;14.77;;;;;;;;;;5017630;28;20250;-87
2021/01/07 12:14:45;;;;;;;15.03;13.63;;;;;;;;;;5016930;28;20207;-87
2021/01/07 12:17:14;;;;;;;15.30;13.80;;;;;;;;;;5016851;28;20219;-88
2021/01/07 12:19:45;;;;;;;14.83;13.37;;;;;;;;;;5016769;28;20242;-88
2021/01/07 12:22:15;;;;;;;15.53;14.03;;;;;;;;;;5017243;28;20177;-88
2021/01/07 12:24:45;;;;;;;15.47;13.87;;;;;;;;;;5034318;28;20272;-88
2021/01/07 12:27:11;;;;;;;15.67;14.07;;;;;;;;;;5016470;28;20534;-87
2021/01/07 12:29:39;;;;;;;17.57;14.47;;;;;;;;;;5034408;28;20191;-87
2021/01/07 12:32:11;;;;;;;17.30;15.50;;;;;;;;;;5034342;28;20204;-87
2021/01/07 12:35:01;;;;;;;16.80;15.00;;;;;;;;;;5018312;28;20193;-87
2021/01/07 12:37:31;;;;;;;16.30;14.70;;;;;;;;;;5017604;28;20265;-88
2021/01/07 12:40:11;;;;;;;15.50;13.90;;;;;;;;;;5017002;28;20217;-87
2021/01/07 12:42:49;;;;;;;15.07;12.73;;;;;;;;;;5034057;28;20169;-88
2021/01/07 12:45:19;;;;;;;16.63;14.80;;;;;;;;;;5032923;28;20201;-86
2021/01/07 12:47:51;;;;;;;17.00;15.20;;;;;;;;;;5015209;28;20188;-87
2021/01/07 12:50:21;;;;;;;14.93;13.50;;;;;;;;;;5016418;28;20211;-87
2021/01/07 12:52:48;;;;;;;14.60;13.03;;;;;;;;;;5015480;28;20623;-87
2021/01/07 12:55:14;;;;;;;14.50;13.00;;;;;;;;;;5032849;28;20196;-87
2021/01/07 12:57:48;;;;;;;14.47;12.73;;;;;;;;;;5033094;28;20168;-88
2021/01/07 13:00:21;;;;;;;15.50;13.90;;;;;;;;;;5016142;28;20516;-87
2021/01/07 13:03:10;;;;;;;15.10;13.60;;;;;;;;;;5037071;28;20521;-87
2021/01/07 13:05:46;;;;;;;14.47;12.97;;;;;;;;;;5018537;28;20194;-87
2021/01/07 13:08:16;;;;;;;14.77;13.27;;;;;;;;;;5019074;28;20536;-87
2021/01/07 13:10:48;;;;;;;14.37;12.97;;;;;;;;;;5018442;28;20179;-87
2021/01/07 13:13:16;;;;;;;15.83;14.23;;;;;;;;;;5036334;28;20198;-87
2021/01/07 13:15:46;;;;;;;14.20;12.70;;;;;;;;;;5002531;28;20190;-87
2021/01/07 13:18:15;;;;;;;16.80;14.47;;;;;;;;;;5018335;28;20190;-87
2021/01/07 13:20:45;;;;;;;15.43;13.93;;;;;;;;;;5035850;28;20189;-86
2021/01/07 13:23:17;;;;;;;15.67;14.07;;;;;;;;;;5018124;28;20189;-87
2021/01/07 13:25:48;;;;;;;14.93;13.33;;;;;;;;;;5018085;28;20215;-87
2021/01/07 13:28:21;;;;;;;15.60;14.07;;;;;;;;;;5018033;28;20175;-85
2021/01/07 13:30:50;;;;;;;15.27;13.67;;;;;;;;;;5035809;28;20174;-87
2021/01/07 13:33:21;;;;;;;14.63;13.13;;;;;;;;;;5017817;28;20749;-87
2021/01/07 13:35:55;;;;;;;16.50;14.80;;;;;;;;;;5017857;28;20173;-87
2021/01/07 13:38:28;;;;;;;14.97;13.33;;;;;;;;;;5017863;28;20651;-87
2021/01/07 13:41:01;;;;;;;15.67;14.13;;;;;;;;;;5017963;28;20227;-87
2021/01/07 13:43:36;;;;;;;16.77;13.97;;;;;;;;;;5017748;28;20178;-87
2021/01/07 13:46:08;;;;;;;16.10;13.23;;;;;;;;;;5017845;28;20180;-87
2021/01/07 13:48:44;;;;;;;14.50;13.00;;;;;;;;;;5017696;28;20192;-86
2021/01/07 13:51:21;;;;;;;15.70;13.30;;;;;;;;;;5035524;28;20176;-87
2021/01/07 13:53:49;;;;;;;14.93;12.53;;;;;;;;;;5017621;28;20693;-87
2021/01/07 13:56:19;;;;;;;14.50;13.00;;;;;;;;;;5017604;28;20563;-87
2021/01/07 13:58:51;;;;;;;14.20;12.67;;;;;;;;;;5017455;28;20183;-87
2021/01/07 14:01:24;;;;;;;16.17;12.97;;;;;;;;;;5017286;28;20186;-86
2021/01/07 14:03:55;;;;;;;14.17;12.77;;;;;;;;;;5035167;28;20224;-86
2021/01/07 14:06:29;;;;;;;13.40;12.07;;;;;;;;;;5034979;28;20646;-86
2021/01/07 14:09:14;;;;;;;14.17;12.67;;;;;;;;;;5034909;28;20180;-86
2021/01/07 14:11:46;;;;;;;14.50;13.00;;;;;;;;;;5017100;28;20238;-87
2021/01/07 14:14:17;;;;;;;14.93;13.40;;;;;;;;;;5016323;28;20209;-86
2021/01/07 14:16:51;;;;;;;15.57;13.87;;;;;;;;;;5034783;28;20172;-86
2021/01/07 14:19:19;;;;;;;16.23;14.03;;;;;;;;;;5034843;28;20182;-86
2021/01/07 14:21:50;;;;;;;14.83;13.37;;;;;;;;;;5034903;28;20173;-86
2021/01/07 14:24:19;;;;;;;15.60;14.07;;;;;;;;;;5035001;28;20209;-86
2021/01/07 14:27:01;;;;;;;16.03;14.43;;;;;;;;;;5017071;28;20684;-86
2021/01/07 14:29:28;;;;;;;15.37;13.77;;;;;;;;;;5034595;28;20262;-86
2021/01/07 14:31:56;;;;;;;16.80;14.90;;;;;;;;;;5016837;28;20252;-86
2021/01/07 14:34:28;;;;;;;16.47;14.57;;;;;;;;;;5016696;28;20210;-86
2021/01/07 14:37:03;;;;;;;16.47;14.40;;;;;;;;;;5016798;28;20179;-87
2021/01/07 14:39:35;;;;;;;15.37;13.87;;;;;;;;;;5016738;28;20174;-87
2021/01/07 14:42:08;;;;;;;15.83;14.30;;;;;;;;;;5016668;28;20178;-86
2021/01/07 14:44:37;;;;;;;16.47;14.77;;;;;;;;;;5016827;28;20544;-86